Time;durP1;ratioP1;P1;durP2;ratioP2;P2;SDS_P1;SDS_P2;PMS_P1;PMS_P2;Temp;Humidity;BMP_temperature;BMP_pressure;BME280_temperature;BME280_humidity;BME280_pressure;Samples;Min_cycle;Max_cycle;Signal;HPM_P1;HPM_P2
2022/08/01 00:01:59;;;;;;;13.65;6.60;;;;;;;;;;5038366;28;20132;-75
2022/08/01 00:04:25;;;;;;;9.75;6.22;;;;;;;;;;5038215;28;20130;-75
2022/08/01 00:06:51;;;;;;;13.40;7.03;;;;;;;;;;5038708;28;20046;-76
2022/08/01 00:09:17;;;;;;;11.13;6.70;;;;;;;;;;5020620;28;20455;-75
2022/08/01 00:11:43;;;;;;;10.40;5.53;;;;;;;;;;5040459;28;20489;-75
2022/08/01 00:14:09;;;;;;;7.45;4.78;;;;;;;;;;5040631;28;20476;-75
2022/08/01 00:16:36;;;;;;;6.75;4.57;;;;;;;;;;5037583;28;20052;-75
2022/08/01 00:19:04;;;;;;;8.30;4.15;;;;;;;;;;5037628;28;20102;-75
2022/08/01 00:21:30;;;;;;;8.23;4.43;;;;;;;;;;5037474;28;20607;-75
2022/08/01 00:23:56;;;;;;;7.15;3.90;;;;;;;;;;5037773;28;20061;-76
2022/08/01 00:26:22;;;;;;;5.70;3.80;;;;;;;;;;5028626;28;20092;-75
2022/08/01 00:28:48;;;;;;;5.93;3.15;;;;;;;;;;5056175;28;20112;-75
2022/08/01 00:31:14;;;;;;;5.22;3.30;;;;;;;;;;5040102;28;20575;-74
2022/08/01 00:33:40;;;;;;;6.63;3.10;;;;;;;;;;5023357;28;20048;-74
2022/08/01 00:36:06;;;;;;;7.00;3.55;;;;;;;;;;5057466;28;20041;-75
2022/08/01 00:38:32;;;;;;;5.50;2.95;;;;;;;;;;5040738;28;20088;-74
2022/08/01 00:40:58;;;;;;;6.40;2.97;;;;;;;;;;5046685;28;20481;-74
2022/08/01 00:43:25;;;;;;;5.35;3.13;;;;;;;;;;5037873;28;20042;-74
2022/08/01 00:45:51;;;;;;;4.22;2.70;;;;;;;;;;5038730;28;20092;-75
2022/08/01 00:48:17;;;;;;;5.80;3.20;;;;;;;;;;5037321;28;20079;-75
2022/08/01 00:50:43;;;;;;;4.32;2.53;;;;;;;;;;5037539;28;20334;-75
2022/08/01 00:53:09;;;;;;;3.33;2.30;;;;;;;;;;5019747;28;20148;-75
2022/08/01 00:55:39;;;;;;;3.90;2.65;;;;;;;;;;5019185;28;20057;-75
2022/08/01 00:58:05;;;;;;;4.55;2.70;;;;;;;;;;5000280;28;20049;-76
2022/08/01 01:00:34;;;;;;;5.22;3.13;;;;;;;;;;5017482;28;20053;-75
2022/08/01 01:03:00;;;;;;;4.82;2.95;;;;;;;;;;5017189;28;20046;-75
2022/08/01 01:05:26;;;;;;;5.28;3.25;;;;;;;;;;5016568;28;20051;-75
2022/08/01 01:07:55;;;;;;;6.78;3.50;;;;;;;;;;5017458;28;20038;-74
2022/08/01 01:10:23;;;;;;;7.25;3.08;;;;;;;;;;5021097;28;20042;-74
2022/08/01 01:12:51;;;;;;;5.68;3.80;;;;;;;;;;5039104;28;20046;-75
2022/08/01 01:15:25;;;;;;;4.75;3.40;;;;;;;;;;5037344;28;20050;-75
2022/08/01 01:18:30;;;;;;;12.25;4.60;;;;;;;;;;5037327;28;20056;-74
2022/08/01 01:21:08;;;;;;;10.20;4.88;;;;;;;;;;4955728;29;20055;-74
2022/08/01 01:23:34;;;;;;;10.90;4.70;;;;;;;;;;4971180;28;20043;-75
2022/08/01 01:26:20;;;;;;;11.93;4.68;;;;;;;;;;4951988;28;20052;-74
2022/08/01 01:29:01;;;;;;;15.82;5.40;;;;;;;;;;4933334;29;20051;-75
2022/08/01 01:31:28;;;;;;;9.43;4.43;;;;;;;;;;4951258;28;20058;-75
2022/08/01 01:33:54;;;;;;;12.25;4.72;;;;;;;;;;4956206;29;20131;-75
2022/08/01 01:36:22;;;;;;;11.75;4.00;;;;;;;;;;4950863;28;20493;-75
2022/08/01 01:38:48;;;;;;;9.10;4.25;;;;;;;;;;4940172;29;20063;-74
2022/08/01 01:41:16;;;;;;;10.38;4.10;;;;;;;;;;4956457;29;20371;-75
2022/08/01 01:43:42;;;;;;;11.02;4.30;;;;;;;;;;4968520;28;20446;-75
2022/08/01 01:46:11;;;;;;;8.20;4.35;;;;;;;;;;4967898;28;20118;-75
2022/08/01 01:48:38;;;;;;;10.05;4.63;;;;;;;;;;4956533;29;20051;-74
2022/08/01 01:51:05;;;;;;;11.32;4.40;;;;;;;;;;4977372;28;20107;-75
2022/08/01 01:53:33;;;;;;;9.18;4.60;;;;;;;;;;5036608;28;20045;-75
2022/08/01 01:56:01;;;;;;;8.88;5.35;;;;;;;;;;5019172;28;20038;-75
2022/08/01 01:58:28;;;;;;;8.00;4.25;;;;;;;;;;5036422;28;20053;-75
2022/08/01 02:00:55;;;;;;;9.68;4.55;;;;;;;;;;5035709;28;20041;-74
2022/08/01 02:03:22;;;;;;;12.30;5.05;;;;;;;;;;5036042;28;20504;-75
2022/08/01 02:05:49;;;;;;;12.05;4.88;;;;;;;;;;5035977;28;20080;-74
2022/08/01 02:08:16;;;;;;;11.15;4.68;;;;;;;;;;5036197;28;20473;-74
2022/08/01 02:11:17;;;;;;;12.52;5.10;;;;;;;;;;5036661;28;20070;-75
2022/08/01 02:13:28;;;;;;;;;;;;;;;;;;5037151;28;20439;-75
2022/08/01 02:15:55;;;;;;;11.25;5.00;;;;;;;;;;5037988;28;20008;-74
2022/08/01 02:18:21;;;;;;;8.63;4.30;;;;;;;;;;5047017;28;20456;-75
2022/08/01 02:20:49;;;;;;;13.95;4.90;;;;;;;;;;5043181;28;20386;-75
2022/08/01 02:23:15;;;;;;;11.65;4.90;;;;;;;;;;5022677;28;20045;-75
2022/08/01 02:25:41;;;;;;;10.65;4.80;;;;;;;;;;5019471;28;20038;-75
2022/08/01 02:28:09;;;;;;;12.65;4.93;;;;;;;;;;5018677;28;20058;-75
2022/08/01 02:30:36;;;;;;;12.65;5.13;;;;;;;;;;5035324;28;20045;-75
2022/08/01 02:33:13;;;;;;;13.65;4.82;;;;;;;;;;5039552;28;20491;-75
2022/08/01 02:35:41;;;;;;;11.85;5.05;;;;;;;;;;5038138;28;20041;-75
2022/08/01 02:38:09;;;;;;;13.93;5.50;;;;;;;;;;5038783;28;20042;-74
2022/08/01 02:40:38;;;;;;;15.57;5.80;;;;;;;;;;5039332;28;20499;-75
2022/08/01 02:43:05;;;;;;;16.65;6.03;;;;;;;;;;5040227;28;20075;-74
2022/08/01 02:45:32;;;;;;;15.32;5.60;;;;;;;;;;5039386;28;20041;-75
2022/08/01 02:48:00;;;;;;;15.55;5.88;;;;;;;;;;5046161;28;20049;-75
2022/08/01 02:50:27;;;;;;;17.27;5.88;;;;;;;;;;5034931;28;20057;-75
2022/08/01 02:52:54;;;;;;;16.25;6.60;;;;;;;;;;5039617;28;20163;-74
2022/08/01 02:55:22;;;;;;;14.63;6.18;;;;;;;;;;5051660;28;20041;-74
2022/08/01 02:57:49;;;;;;;16.02;6.35;;;;;;;;;;5046290;28;20446;-75
2022/08/01 03:00:16;;;;;;;14.95;5.72;;;;;;;;;;5057214;28;20079;-75
2022/08/01 03:02:43;;;;;;;12.30;5.20;;;;;;;;;;5025026;28;20049;-75
2022/08/01 03:05:10;;;;;;;21.38;5.88;;;;;;;;;;5018831;28;20376;-75
2022/08/01 03:07:36;;;;;;;17.92;5.30;;;;;;;;;;5023257;28;20171;-75
2022/08/01 03:10:03;;;;;;;16.40;4.70;;;;;;;;;;5039258;28;20041;-74
2022/08/01 03:12:30;;;;;;;13.75;4.78;;;;;;;;;;5038899;28;20082;-73
2022/08/01 03:14:58;;;;;;;11.68;3.95;;;;;;;;;;5039493;28;20133;-74
2022/08/01 03:17:25;;;;;;;14.13;4.30;;;;;;;;;;5041704;28;20476;-74
2022/08/01 03:19:53;;;;;;;15.20;4.90;;;;;;;;;;5038835;28;20049;-75
2022/08/01 03:22:19;;;;;;;13.95;4.57;;;;;;;;;;5039421;28;20053;-75
2022/08/01 03:24:46;;;;;;;17.35;4.38;;;;;;;;;;5040880;28;20048;-74
2022/08/01 03:27:12;;;;;;;11.55;4.20;;;;;;;;;;5047649;28;20079;-74
2022/08/01 03:29:39;;;;;;;13.70;3.72;;;;;;;;;;5038956;28;20051;-75
2022/08/01 03:32:05;;;;;;;10.50;4.38;;;;;;;;;;5038025;28;20057;-75
2022/08/01 03:34:31;;;;;;;11.88;4.07;;;;;;;;;;5038406;28;20068;-74
2022/08/01 03:37:15;;;;;;;12.80;3.97;;;;;;;;;;5037958;28;20073;-74
2022/08/01 03:39:47;;;;;;;14.38;4.47;;;;;;;;;;5020516;28;20510;-74
2022/08/01 03:42:16;;;;;;;13.75;4.22;;;;;;;;;;5046575;28;20046;-75
2022/08/01 03:44:45;;;;;;;15.63;4.45;;;;;;;;;;5036695;28;20052;-74
2022/08/01 03:47:11;;;;;;;12.10;3.90;;;;;;;;;;5037452;28;20137;-74
2022/08/01 03:49:43;;;;;;;13.43;4.18;;;;;;;;;;5038432;28;20396;-74
2022/08/01 03:52:10;;;;;;;17.30;4.70;;;;;;;;;;5038229;28;20052;-73
2022/08/01 03:54:46;;;;;;;15.02;4.63;;;;;;;;;;5035932;28;20041;-74
2022/08/01 03:57:13;;;;;;;13.20;3.80;;;;;;;;;;5037937;28;20398;-74
2022/08/01 03:59:40;;;;;;;12.52;3.95;;;;;;;;;;5037738;28;20064;-74
2022/08/01 04:02:07;;;;;;;18.05;4.35;;;;;;;;;;5037765;28;20041;-74
2022/08/01 04:04:33;;;;;;;13.35;4.43;;;;;;;;;;5037195;28;20451;-74
2022/08/01 04:07:03;;;;;;;16.40;4.75;;;;;;;;;;5037534;28;20073;-74
2022/08/01 04:09:31;;;;;;;13.80;3.80;;;;;;;;;;5037675;28;20049;-74
2022/08/01 04:11:57;;;;;;;12.68;4.07;;;;;;;;;;5019736;28;20037;-74
2022/08/01 04:14:23;;;;;;;16.67;5.07;;;;;;;;;;5036874;28;20488;-75
2022/08/01 04:16:49;;;;;;;17.83;4.57;;;;;;;;;;5037409;28;20055;-75
2022/08/01 04:19:15;;;;;;;20.75;5.47;;;;;;;;;;5046263;28;20060;-74
2022/08/01 04:21:42;;;;;;;16.60;4.80;;;;;;;;;;5037147;28;20045;-74
2022/08/01 04:24:13;;;;;;;25.35;4.55;;;;;;;;;;5037728;28;20110;-73
2022/08/01 04:26:40;;;;;;;17.35;5.45;;;;;;;;;;5037286;28;20053;-74
2022/08/01 04:29:07;;;;;;;18.98;4.95;;;;;;;;;;5036846;28;20127;-75
2022/08/01 04:31:34;;;;;;;11.85;4.05;;;;;;;;;;5050479;28;20045;-75
2022/08/01 04:34:01;;;;;;;15.48;5.30;;;;;;;;;;5038022;28;20046;-74
2022/08/01 04:36:32;;;;;;;13.25;5.00;;;;;;;;;;5019784;28;20136;-75
2022/08/01 04:39:06;;;;;;;14.52;4.97;;;;;;;;;;5004170;28;20508;-75
2022/08/01 04:41:33;;;;;;;11.15;3.88;;;;;;;;;;5038343;28;20049;-75
2022/08/01 04:43:59;;;;;;;14.38;4.47;;;;;;;;;;5039228;28;20073;-74
2022/08/01 04:46:25;;;;;;;16.00;5.10;;;;;;;;;;5036537;28;20050;-75
2022/08/01 04:48:51;;;;;;;16.95;5.47;;;;;;;;;;5036244;28;20064;-74
2022/08/01 04:51:21;;;;;;;15.50;5.13;;;;;;;;;;5036737;28;20081;-73
2022/08/01 04:53:47;;;;;;;16.20;4.53;;;;;;;;;;5036465;28;20050;-74
2022/08/01 04:56:14;;;;;;;13.50;3.90;;;;;;;;;;5036556;28;20079;-74
2022/08/01 04:58:44;;;;;;;11.32;4.00;;;;;;;;;;5036936;28;20362;-74
2022/08/01 05:01:10;;;;;;;11.13;3.65;;;;;;;;;;5015930;28;20488;-74
2022/08/01 05:03:37;;;;;;;18.33;4.88;;;;;;;;;;5023656;28;20389;-75
2022/08/01 05:06:03;;;;;;;17.85;4.40;;;;;;;;;;5036424;28;20103;-74
2022/08/01 05:08:29;;;;;;;14.00;4.15;;;;;;;;;;5035811;28;20053;-75
2022/08/01 05:10:58;;;;;;;11.60;4.75;;;;;;;;;;5046077;28;20057;-77
2022/08/01 05:13:25;;;;;;;14.88;4.60;;;;;;;;;;5039898;28;20080;-75
2022/08/01 05:15:52;;;;;;;16.88;3.83;;;;;;;;;;5050129;28;20472;-73
2022/08/01 05:18:18;;;;;;;15.02;4.47;;;;;;;;;;5050922;28;20497;-74
2022/08/01 05:20:44;;;;;;;14.70;4.43;;;;;;;;;;5043150;28;20461;-73
2022/08/01 05:23:10;;;;;;;10.93;4.05;;;;;;;;;;5042991;28;20197;-73
2022/08/01 05:25:38;;;;;;;14.73;3.67;;;;;;;;;;5059118;28;20041;-73
2022/08/01 05:28:04;;;;;;;18.80;4.82;;;;;;;;;;5062759;28;20120;-73
2022/08/01 05:30:30;;;;;;;10.77;3.80;;;;;;;;;;5051454;28;20095;-73
2022/08/01 05:32:56;;;;;;;13.98;3.67;;;;;;;;;;5041091;28;20041;-73
2022/08/01 05:35:22;;;;;;;22.23;4.75;;;;;;;;;;5042747;28;20049;-73
2022/08/01 05:37:48;;;;;;;13.40;4.50;;;;;;;;;;5043305;28;20056;-73
2022/08/01 05:40:14;;;;;;;13.95;4.05;;;;;;;;;;5045727;28;20033;-74
2022/08/01 05:42:40;;;;;;;13.15;3.83;;;;;;;;;;5043739;28;20081;-74
2022/08/01 05:45:07;;;;;;;17.75;4.38;;;;;;;;;;5062603;28;20044;-74
2022/08/01 05:47:33;;;;;;;10.73;3.80;;;;;;;;;;5039893;28;20049;-74
2022/08/01 05:49:59;;;;;;;18.02;4.47;;;;;;;;;;5042179;28;20084;-74
2022/08/01 05:52:25;;;;;;;13.77;4.00;;;;;;;;;;5042287;28;20045;-74
2022/08/01 05:54:53;;;;;;;13.95;4.43;;;;;;;;;;5040523;28;20136;-75
2022/08/01 05:57:19;;;;;;;16.67;3.97;;;;;;;;;;5041514;28;20048;-74
2022/08/01 05:59:45;;;;;;;13.85;3.78;;;;;;;;;;5040819;28;20124;-74
2022/08/01 06:02:11;;;;;;;11.65;3.33;;;;;;;;;;5040616;28;20068;-74
2022/08/01 06:04:37;;;;;;;10.48;3.70;;;;;;;;;;5039573;28;20057;-73
2022/08/01 06:07:03;;;;;;;9.05;3.83;;;;;;;;;;5043698;28;20445;-73
2022/08/01 06:09:30;;;;;;;10.75;4.68;;;;;;;;;;5025614;28;20520;-74
2022/08/01 06:11:56;;;;;;;13.05;3.55;;;;;;;;;;5024617;28;20199;-73
2022/08/01 06:14:22;;;;;;;7.85;3.50;;;;;;;;;;5043066;28;20060;-74
2022/08/01 06:16:48;;;;;;;8.73;4.03;;;;;;;;;;5042871;28;20064;-73
2022/08/01 06:19:14;;;;;;;7.90;3.58;;;;;;;;;;5039117;28;20049;-73
2022/08/01 06:21:40;;;;;;;10.65;3.83;;;;;;;;;;5044514;28;20484;-74
2022/08/01 06:24:06;;;;;;;7.43;2.80;;;;;;;;;;5042198;28;20064;-73
2022/08/01 06:26:33;;;;;;;11.75;3.60;;;;;;;;;;5041153;28;20041;-73
2022/08/01 06:28:59;;;;;;;12.50;4.45;;;;;;;;;;5041400;28;20038;-73
2022/08/01 06:31:25;;;;;;;15.48;3.70;;;;;;;;;;5040718;28;20080;-73
2022/08/01 06:33:51;;;;;;;12.00;3.72;;;;;;;;;;5040896;28;20496;-73
2022/08/01 06:36:17;;;;;;;9.82;3.20;;;;;;;;;;5041989;28;20079;-73
2022/08/01 06:38:43;;;;;;;15.93;4.50;;;;;;;;;;5042849;28;20083;-73
2022/08/01 06:41:09;;;;;;;13.93;3.97;;;;;;;;;;5043310;28;20046;-74
2022/08/01 06:43:35;;;;;;;15.10;3.88;;;;;;;;;;5062606;28;20051;-73
2022/08/01 06:46:01;;;;;;;11.30;4.20;;;;;;;;;;5063201;28;20084;-73
2022/08/01 06:48:27;;;;;;;11.02;3.08;;;;;;;;;;5060873;28;20099;-73
2022/08/01 06:51:07;;;;;;;12.07;3.63;;;;;;;;;;5055867;28;20051;-76
2022/08/01 06:53:34;;;;;;;14.52;3.45;;;;;;;;;;5026115;28;20037;-74
2022/08/01 06:56:00;;;;;;;10.70;3.22;;;;;;;;;;5042523;28;20045;-75
2022/08/01 06:58:26;;;;;;;11.10;3.30;;;;;;;;;;5044114;28;20041;-73
2022/08/01 07:00:52;;;;;;;15.65;3.70;;;;;;;;;;5039572;28;20041;-74
2022/08/01 07:03:18;;;;;;;8.98;3.00;;;;;;;;;;5041268;28;20044;-73
2022/08/01 07:05:44;;;;;;;10.57;3.10;;;;;;;;;;5042427;28;20048;-73
2022/08/01 07:08:10;;;;;;;10.95;2.70;;;;;;;;;;5041723;28;20052;-73
2022/08/01 07:10:36;;;;;;;12.98;3.90;;;;;;;;;;5035259;28;20057;-74
2022/08/01 07:13:02;;;;;;;10.77;3.17;;;;;;;;;;5041146;28;20037;-74
2022/08/01 07:15:28;;;;;;;7.07;3.17;;;;;;;;;;5057569;28;20044;-74
2022/08/01 07:17:54;;;;;;;10.25;3.03;;;;;;;;;;5041653;28;20045;-74
2022/08/01 07:20:20;;;;;;;10.40;3.50;;;;;;;;;;5041357;28;20191;-74
2022/08/01 07:22:46;;;;;;;13.75;3.10;;;;;;;;;;5041313;28;20480;-74
2022/08/01 07:25:12;;;;;;;10.48;2.63;;;;;;;;;;5041473;28;20045;-75
2022/08/01 07:27:38;;;;;;;12.02;3.20;;;;;;;;;;5041877;28;20144;-74
2022/08/01 07:30:05;;;;;;;10.23;2.70;;;;;;;;;;5024521;28;20049;-74
2022/08/01 07:32:31;;;;;;;9.88;3.05;;;;;;;;;;5041542;28;20125;-72
2022/08/01 07:34:57;;;;;;;9.98;3.10;;;;;;;;;;5039551;28;20049;-76
2022/08/01 07:37:24;;;;;;;7.72;2.65;;;;;;;;;;5037622;28;20057;-78
2022/08/01 07:39:50;;;;;;;8.07;2.83;;;;;;;;;;5035492;28;20120;-78
2022/08/01 07:42:16;;;;;;;10.02;2.70;;;;;;;;;;5035600;28;20046;-78
2022/08/01 07:44:42;;;;;;;9.90;3.40;;;;;;;;;;5035795;28;20050;-78
2022/08/01 07:47:08;;;;;;;9.80;2.78;;;;;;;;;;5035630;28;20054;-78
2022/08/01 07:49:34;;;;;;;10.02;3.63;;;;;;;;;;5038767;28;20053;-74
2022/08/01 07:52:01;;;;;;;8.40;2.80;;;;;;;;;;5042092;28;20064;-74
2022/08/01 07:54:28;;;;;;;9.05;3.10;;;;;;;;;;5041817;28;20508;-74
2022/08/01 07:56:54;;;;;;;10.77;3.40;;;;;;;;;;5040957;28;20084;-75
2022/08/01 07:59:22;;;;;;;8.27;3.08;;;;;;;;;;5035551;28;20045;-77
2022/08/01 08:01:52;;;;;;;10.98;2.92;;;;;;;;;;5032584;28;20084;-76
2022/08/01 08:04:18;;;;;;;9.70;2.70;;;;;;;;;;5034982;28;20045;-76
2022/08/01 08:06:47;;;;;;;7.78;3.00;;;;;;;;;;5033436;28;20045;-76
2022/08/01 08:09:13;;;;;;;11.13;2.65;;;;;;;;;;5031448;28;20195;-76
2022/08/01 08:11:39;;;;;;;8.32;2.83;;;;;;;;;;5032353;28;20049;-76
2022/08/01 08:14:05;;;;;;;11.00;3.22;;;;;;;;;;5033754;28;20408;-76
2022/08/01 08:16:31;;;;;;;12.43;3.20;;;;;;;;;;5026258;28;20050;-76
2022/08/01 08:18:57;;;;;;;7.32;2.67;;;;;;;;;;5031625;28;20045;-75
2022/08/01 08:21:23;;;;;;;14.38;2.90;;;;;;;;;;5032263;28;20407;-76
2022/08/01 08:26:34;;;;;;;10.18;2.63;;;;;;;;;;5034383;28;20405;-77
2022/08/01 08:29:00;;;;;;;8.18;2.40;;;;;;;;;;5034399;28;20073;-76
2022/08/01 08:31:26;;;;;;;7.18;2.53;;;;;;;;;;5034612;28;20179;-76
2022/08/01 08:33:52;;;;;;;8.25;2.40;;;;;;;;;;5033726;28;20521;-76
2022/08/01 08:36:18;;;;;;;7.32;2.33;;;;;;;;;;5034342;28;20080;-76
2022/08/01 08:38:44;;;;;;;8.27;2.42;;;;;;;;;;5035706;28;20049;-76
2022/08/01 08:41:10;;;;;;;10.80;2.80;;;;;;;;;;5033125;28;20041;-76
2022/08/01 08:43:36;;;;;;;18.55;2.78;;;;;;;;;;5001370;28;20484;-75
2022/08/01 08:46:02;;;;;;;11.63;2.63;;;;;;;;;;5033047;28;20135;-75
2022/08/01 08:48:29;;;;;;;10.05;3.20;;;;;;;;;;5032828;28;20053;-78
2022/08/01 08:50:56;;;;;;;6.72;2.58;;;;;;;;;;5038775;28;20073;-76
2022/08/01 08:53:22;;;;;;;9.20;2.72;;;;;;;;;;5016683;28;20057;-75
2022/08/01 08:55:48;;;;;;;7.20;2.30;;;;;;;;;;5050918;28;20120;-76
2022/08/01 08:58:15;;;;;;;8.05;2.53;;;;;;;;;;5036331;28;20041;-80
2022/08/01 09:00:41;;;;;;;9.25;2.78;;;;;;;;;;5054495;28;20051;-77
2022/08/01 09:03:07;;;;;;;10.25;2.97;;;;;;;;;;5036177;28;20061;-76
2022/08/01 09:05:34;;;;;;;10.48;2.90;;;;;;;;;;5032343;28;20056;-76
2022/08/01 09:08:00;;;;;;;9.32;2.50;;;;;;;;;;5026915;28;20045;-75
2022/08/01 09:10:26;;;;;;;8.07;2.30;;;;;;;;;;5032725;28;20065;-76
2022/08/01 09:13:12;;;;;;;8.18;2.45;;;;;;;;;;5033447;28;20041;-75
2022/08/01 09:15:50;;;;;;;8.38;2.97;;;;;;;;;;5041289;28;20053;-76
2022/08/01 09:18:45;;;;;;;5.80;2.42;;;;;;;;;;5033020;28;20046;-75
2022/08/01 09:21:19;;;;;;;7.07;2.47;;;;;;;;;;4999421;28;20058;-74
2022/08/01 09:23:49;;;;;;;8.77;2.40;;;;;;;;;;5013778;28;20497;-75
2022/08/01 09:26:17;;;;;;;8.52;2.40;;;;;;;;;;5008509;28;20118;-76
2022/08/01 09:28:44;;;;;;;7.32;2.10;;;;;;;;;;5015183;28;20423;-75
2022/08/01 09:31:11;;;;;;;6.00;2.65;;;;;;;;;;5020856;28;20048;-75
2022/08/01 09:33:49;;;;;;;6.18;2.20;;;;;;;;;;5019152;28;20041;-77
2022/08/01 09:36:15;;;;;;;5.82;2.08;;;;;;;;;;5020680;28;20477;-76
2022/08/01 09:38:41;;;;;;;5.93;1.85;;;;;;;;;;5033331;28;20488;-74
2022/08/01 09:41:07;;;;;;;7.07;2.38;;;;;;;;;;5015183;28;20053;-76
2022/08/01 09:43:34;;;;;;;5.63;2.00;;;;;;;;;;5035851;28;20481;-75
2022/08/01 09:46:04;;;;;;;7.55;2.53;;;;;;;;;;5013863;28;20175;-76
2022/08/01 09:48:32;;;;;;;8.48;2.50;;;;;;;;;;5024154;28;20050;-76
2022/08/01 09:50:59;;;;;;;10.45;2.67;;;;;;;;;;5032500;28;20054;-76
2022/08/01 09:53:25;;;;;;;8.90;2.60;;;;;;;;;;5032701;28;20357;-75
2022/08/01 09:55:53;;;;;;;3.30;1.95;;;;;;;;;;5033412;28;20045;-78
2022/08/01 09:58:20;;;;;;;5.25;2.28;;;;;;;;;;5032355;28;20117;-75
2022/08/01 10:00:59;;;;;;;8.63;2.63;;;;;;;;;;5033485;28;20144;-75
2022/08/01 10:03:26;;;;;;;6.30;2.00;;;;;;;;;;5029968;28;20038;-75
2022/08/01 10:05:53;;;;;;;5.22;1.73;;;;;;;;;;4989067;28;20094;-76
2022/08/01 10:08:23;;;;;;;7.20;2.10;;;;;;;;;;5031119;28;20087;-76
2022/08/01 10:11:09;;;;;;;7.88;2.10;;;;;;;;;;5029196;28;20061;-76
2022/08/01 10:13:35;;;;;;;;;;;;;;;;;;5032308;28;20121;-76
2022/08/01 10:16:01;;;;;;;6.40;2.67;;;;;;;;;;5032702;28;20060;-76
2022/08/01 10:18:30;;;;;;;5.70;2.08;;;;;;;;;;5034607;28;20607;-82
2022/08/01 10:20:56;;;;;;;10.60;2.20;;;;;;;;;;5034171;28;20049;-81
2022/08/01 10:23:23;;;;;;;6.13;2.10;;;;;;;;;;5017674;28;20044;-83
2022/08/01 10:25:49;;;;;;;7.35;2.05;;;;;;;;;;5001537;28;20049;-76
2022/08/01 10:28:16;;;;;;;6.72;2.40;;;;;;;;;;5034419;28;20517;-75
2022/08/01 10:30:43;;;;;;;8.27;2.10;;;;;;;;;;5053123;28;20129;-76
2022/08/01 10:33:09;;;;;;;5.78;2.55;;;;;;;;;;5046843;28;20045;-76
2022/08/01 10:35:35;;;;;;;6.22;1.98;;;;;;;;;;5032677;28;20503;-76
2022/08/01 10:38:02;;;;;;;5.70;2.35;;;;;;;;;;5036074;28;20049;-76
2022/08/01 10:40:28;;;;;;;5.80;2.40;;;;;;;;;;5037227;28;20037;-77
2022/08/01 10:42:54;;;;;;;6.78;2.20;;;;;;;;;;5035707;28;20052;-77
2022/08/01 10:45:21;;;;;;;8.00;2.10;;;;;;;;;;5037708;28;20038;-76
2022/08/01 10:47:47;;;;;;;4.95;2.15;;;;;;;;;;5037047;28;20053;-76
2022/08/01 10:50:25;;;;;;;5.00;2.20;;;;;;;;;;5036804;28;20065;-77
2022/08/01 10:53:12;;;;;;;8.18;2.40;;;;;;;;;;5019178;28;20037;-76
2022/08/01 10:55:56;;;;;;;9.38;2.30;;;;;;;;;;5037341;28;20053;-76
2022/08/01 10:58:28;;;;;;;6.90;2.38;;;;;;;;;;5032150;28;20068;-76
2022/08/01 11:01:13;;;;;;;7.57;2.22;;;;;;;;;;5014911;28;20041;-76
2022/08/01 11:03:39;;;;;;;11.93;2.78;;;;;;;;;;5033013;28;20048;-76
2022/08/01 11:06:05;;;;;;;6.32;2.22;;;;;;;;;;5035480;28;20068;-75
2022/08/01 11:08:31;;;;;;;6.63;2.10;;;;;;;;;;5036088;28;20536;-76
2022/08/01 11:11:01;;;;;;;5.60;1.95;;;;;;;;;;5034866;28;20076;-77
2022/08/01 11:13:46;;;;;;;8.13;2.50;;;;;;;;;;5027263;28;20485;-75
2022/08/01 11:16:31;;;;;;;6.40;2.00;;;;;;;;;;5041738;28;20120;-76
2022/08/01 11:18:57;;;;;;;7.90;2.38;;;;;;;;;;5036997;28;20053;-75
2022/08/01 11:21:43;;;;;;;6.63;2.20;;;;;;;;;;5037182;28;20049;-76
2022/08/01 11:24:09;;;;;;;7.88;2.47;;;;;;;;;;5035539;28;20049;-76
2022/08/01 11:26:35;;;;;;;5.03;2.25;;;;;;;;;;5035541;28;20468;-77
2022/08/01 11:29:18;;;;;;;7.18;2.20;;;;;;;;;;5035798;28;20095;-76
2022/08/01 11:31:44;;;;;;;4.80;2.10;;;;;;;;;;5035551;28;20492;-76
2022/08/01 11:34:10;;;;;;;4.22;2.08;;;;;;;;;;5018234;28;20115;-76
2022/08/01 11:36:36;;;;;;;8.68;2.63;;;;;;;;;;5028912;28;20068;-76
2022/08/01 11:39:06;;;;;;;3.28;2.00;;;;;;;;;;5017600;28;20493;-76
2022/08/01 11:41:33;;;;;;;4.65;2.08;;;;;;;;;;5018123;28;20124;-76
2022/08/01 11:43:59;;;;;;;5.57;2.00;;;;;;;;;;5035956;28;20441;-76
2022/08/01 11:46:44;;;;;;;6.72;2.53;;;;;;;;;;5034319;28;20081;-77
2022/08/01 11:49:45;;;;;;;5.75;1.95;;;;;;;;;;5030204;28;20049;-76
2022/08/01 11:52:35;;;;;;;5.85;2.28;;;;;;;;;;4992785;28;20088;-76
2022/08/01 11:55:01;;;;;;;6.60;2.55;;;;;;;;;;5035230;28;20045;-76
2022/08/01 11:57:30;;;;;;;6.15;2.42;;;;;;;;;;5035134;28;20489;-76
2022/08/01 11:59:57;;;;;;;7.47;2.53;;;;;;;;;;5035308;28;20045;-75
2022/08/01 12:02:23;;;;;;;3.83;2.03;;;;;;;;;;5034888;28;20079;-76
2022/08/01 12:04:51;;;;;;;6.38;2.10;;;;;;;;;;5017133;28;20495;-76
2022/08/01 12:07:18;;;;;;;6.03;2.08;;;;;;;;;;5035196;28;20049;-76
2022/08/01 12:09:46;;;;;;;7.38;2.08;;;;;;;;;;5035109;28;20099;-76
2022/08/01 12:12:16;;;;;;;4.78;2.15;;;;;;;;;;5034538;28;20460;-75
2022/08/01 12:14:43;;;;;;;5.88;2.10;;;;;;;;;;5034948;28;20049;-75
2022/08/01 12:17:09;;;;;;;4.63;1.95;;;;;;;;;;5041721;28;20041;-76
2022/08/01 12:19:43;;;;;;;5.00;2.30;;;;;;;;;;5054859;28;20357;-76
2022/08/01 12:22:13;;;;;;;6.03;2.17;;;;;;;;;;5039892;28;20466;-75
2022/08/01 12:24:40;;;;;;;6.82;2.08;;;;;;;;;;5017172;28;20045;-76
2022/08/01 12:27:07;;;;;;;10.30;2.67;;;;;;;;;;5034377;28;20091;-75
2022/08/01 12:29:33;;;;;;;6.32;2.45;;;;;;;;;;5034029;28;20041;-76
2022/08/01 12:31:59;;;;;;;3.38;1.80;;;;;;;;;;5047003;28;20047;-75
2022/08/01 12:34:27;;;;;;;5.18;2.30;;;;;;;;;;5054869;28;20056;-75
2022/08/01 12:36:53;;;;;;;4.47;2.00;;;;;;;;;;5054496;28;20045;-76
2022/08/01 12:39:20;;;;;;;5.43;2.15;;;;;;;;;;5054493;28;20480;-76
2022/08/01 12:41:46;;;;;;;4.70;2.08;;;;;;;;;;5053483;28;20045;-76
2022/08/01 12:44:16;;;;;;;7.78;2.10;;;;;;;;;;5053870;28;20041;-75
2022/08/01 12:46:42;;;;;;;7.10;2.42;;;;;;;;;;5040879;28;20062;-75
2022/08/01 12:49:08;;;;;;;5.38;1.77;;;;;;;;;;5031546;28;20515;-75
2022/08/01 12:51:34;;;;;;;3.97;2.08;;;;;;;;;;5045931;28;20038;-76
2022/08/01 12:54:01;;;;;;;8.07;2.42;;;;;;;;;;5034340;28;20080;-76
2022/08/01 12:56:33;;;;;;;6.43;2.22;;;;;;;;;;5016305;28;20477;-76
2022/08/01 12:59:00;;;;;;;7.97;2.30;;;;;;;;;;5016034;28;20132;-76
2022/08/01 13:01:27;;;;;;;4.63;2.50;;;;;;;;;;5039134;28;20049;-76
2022/08/01 13:04:06;;;;;;;7.78;2.20;;;;;;;;;;5054041;28;20124;-76
2022/08/01 13:06:32;;;;;;;4.85;2.20;;;;;;;;;;5053861;28;20041;-76
2022/08/01 13:09:08;;;;;;;4.40;2.08;;;;;;;;;;5035293;28;20423;-77
2022/08/01 13:11:35;;;;;;;6.95;2.30;;;;;;;;;;5035356;28;20174;-76
2022/08/01 13:14:01;;;;;;;5.35;2.40;;;;;;;;;;5039765;28;20068;-76
2022/08/01 13:16:27;;;;;;;7.72;3.00;;;;;;;;;;5034483;28;20533;-75
2022/08/01 13:18:57;;;;;;;3.78;2.03;;;;;;;;;;5033176;28;20045;-75
2022/08/01 13:21:24;;;;;;;5.15;2.10;;;;;;;;;;5033517;28;20385;-76
2022/08/01 13:24:10;;;;;;;7.60;2.88;;;;;;;;;;5032358;28;20469;-75
2022/08/01 13:26:45;;;;;;;6.30;2.67;;;;;;;;;;5033382;28;20052;-75
2022/08/01 13:29:13;;;;;;;5.47;2.33;;;;;;;;;;5033419;28;20473;-75
2022/08/01 13:31:40;;;;;;;11.02;2.22;;;;;;;;;;5033042;28;20108;-76
2022/08/01 13:34:06;;;;;;;7.43;2.30;;;;;;;;;;5033352;28;20112;-76
2022/08/01 13:36:32;;;;;;;5.13;2.00;;;;;;;;;;5033617;28;20037;-76
2022/08/01 13:41:43;;;;;;;5.97;2.13;;;;;;;;;;5033532;28;20077;-76
2022/08/01 13:44:10;;;;;;;7.30;2.35;;;;;;;;;;5034465;28;20041;-76
2022/08/01 13:46:39;;;;;;;4.05;2.10;;;;;;;;;;5033332;28;20053;-75
2022/08/01 13:49:06;;;;;;;6.60;2.30;;;;;;;;;;5032570;28;20405;-76
2022/08/01 13:51:32;;;;;;;6.78;2.35;;;;;;;;;;5032895;28;20044;-75
2022/08/01 13:53:58;;;;;;;9.43;2.63;;;;;;;;;;5015507;28;20049;-75
2022/08/01 13:56:27;;;;;;;5.25;1.90;;;;;;;;;;5033029;28;20495;-76
2022/08/01 13:58:53;;;;;;;6.53;2.40;;;;;;;;;;5032815;28;20049;-76
2022/08/01 14:01:19;;;;;;;7.25;2.80;;;;;;;;;;5032773;28;20050;-76
2022/08/01 14:03:46;;;;;;;5.68;1.95;;;;;;;;;;5033170;28;20048;-75
2022/08/01 14:06:12;;;;;;;6.13;2.42;;;;;;;;;;5032947;28;20042;-76
2022/08/01 14:08:38;;;;;;;9.07;2.58;;;;;;;;;;5032784;28;20053;-75
2022/08/01 14:11:07;;;;;;;6.50;2.50;;;;;;;;;;5031710;28;20460;-76
2022/08/01 14:13:33;;;;;;;6.45;2.45;;;;;;;;;;5050775;28;20075;-77
2022/08/01 14:15:59;;;;;;;8.85;2.47;;;;;;;;;;5038176;28;20046;-77
2022/08/01 14:18:25;;;;;;;7.65;2.45;;;;;;;;;;5033016;28;20092;-76
2022/08/01 14:20:52;;;;;;;5.60;2.33;;;;;;;;;;5032912;28;20053;-76
2022/08/01 14:23:18;;;;;;;6.35;2.53;;;;;;;;;;5032096;28;20045;-76
2022/08/01 14:25:44;;;;;;;9.95;2.70;;;;;;;;;;5032950;28;20096;-76
2022/08/01 14:28:10;;;;;;;6.82;2.05;;;;;;;;;;5032547;28;20042;-76
2022/08/01 14:30:36;;;;;;;6.70;2.17;;;;;;;;;;5032897;28;20091;-76
2022/08/01 14:33:03;;;;;;;5.70;2.45;;;;;;;;;;5032055;28;20037;-76
2022/08/01 14:35:29;;;;;;;5.65;1.98;;;;;;;;;;5033768;28;20054;-74
2022/08/01 14:37:55;;;;;;;9.02;2.67;;;;;;;;;;5032804;28;20045;-75
2022/08/01 14:40:22;;;;;;;10.00;2.88;;;;;;;;;;5032748;28;20072;-75
2022/08/01 14:42:48;;;;;;;4.20;1.95;;;;;;;;;;5032703;28;20079;-75
2022/08/01 14:45:14;;;;;;;7.40;2.65;;;;;;;;;;5014164;28;20045;-75
2022/08/01 14:47:41;;;;;;;7.47;2.53;;;;;;;;;;5033308;28;20481;-75
2022/08/01 14:50:08;;;;;;;4.45;1.90;;;;;;;;;;5031974;28;20049;-75